Time;durP1;ratioP1;P1;durP2;ratioP2;P2;SDS_P1;SDS_P2;PMS_P1;PMS_P2;Temp;Humidity;BMP_temperature;BMP_pressure;BME280_temperature;BME280_humidity;BME280_pressure;Samples;Min_cycle;Max_cycle;Signal;HPM_P1;HPM_P2
2023/01/12 00:01:40;;;;;;;8.68;6.40;;;;;;;2.86;61.60;93980.38;5027249;28;20025;-76
2023/01/12 00:04:06;;;;;;;8.02;6.28;;;;;;;2.98;61.05;93988.81;5027157;28;20489;-77
2023/01/12 00:06:32;;;;;;;7.35;5.78;;;;;;;2.93;61.58;93989.59;5025552;28;20456;-75
2023/01/12 00:08:58;;;;;;;8.60;6.20;;;;;;;2.90;61.69;93989.31;5023478;28;20046;-76
2023/01/12 00:11:24;;;;;;;7.47;6.07;;;;;;;3.02;61.29;93989.88;5025234;28;20033;-77
2023/01/12 00:13:49;;;;;;;8.90;6.55;;;;;;;2.95;61.63;93998.00;5026427;28;20556;-75
2023/01/12 00:19:10;;;;;;;7.00;5.90;;;;;;;3.11;60.76;94004.06;5029343;28;20044;-77
2023/01/12 00:24:37;;;;;;;6.65;5.72;;;;;;;3.14;60.15;94003.53;5029525;28;20520;-77
2023/01/12 00:27:05;;;;;;;9.40;5.70;;;;;;;3.10;60.04;94002.47;5030224;28;20037;-77
2023/01/12 00:29:31;;;;;;;6.75;4.75;;;;;;;2.86;60.67;93975.91;5029742;28;20126;-77
2023/01/12 00:31:57;;;;;;;6.88;5.20;;;;;;;3.02;60.18;93999.59;5028179;28;20112;-76
2023/01/12 00:34:24;;;;;;;5.80;4.45;;;;;;;3.04;60.77;94008.78;5030002;28;20547;-76
2023/01/12 00:36:49;;;;;;;5.95;4.95;;;;;;;2.96;60.98;94012.72;5029366;28;20153;-76
2023/01/12 00:39:15;;;;;;;5.68;4.60;;;;;;;2.89;61.02;93999.03;5028635;28;20452;-76
2023/01/12 00:47:11;;;;;;;6.50;4.90;;;;;;;2.87;60.06;93964.38;5029210;28;20052;-77
2023/01/12 00:49:37;;;;;;;5.55;4.82;;;;;;;3.09;59.97;94008.78;5029751;28;20493;-78
2023/01/12 00:52:05;;;;;;;7.28;5.30;;;;;;;2.95;60.28;94003.25;5028585;28;20025;-77
2023/01/12 00:54:31;;;;;;;5.80;4.90;;;;;;;3.13;60.17;94004.59;5025319;28;20029;-77
2023/01/12 00:56:56;;;;;;;5.88;4.90;;;;;;;3.02;60.49;93994.34;5025673;28;20048;-77
2023/01/12 00:59:22;;;;;;;5.60;4.45;;;;;;;3.09;59.99;94000.91;5029690;28;20036;-76
2023/01/12 01:01:47;;;;;;;5.47;4.57;;;;;;;3.07;59.93;93997.75;5028020;28;20552;-76
2023/01/12 01:04:13;;;;;;;7.70;5.35;;;;;;;3.06;60.29;93990.91;5030247;28;20033;-77
2023/01/12 01:06:39;;;;;;;6.95;5.10;;;;;;;2.75;60.74;93989.28;5030732;28;20128;-77
2023/01/12 01:09:05;;;;;;;6.95;5.75;;;;;;;2.82;60.57;93987.22;5044223;28;20049;-77
2023/01/12 01:11:31;;;;;;;5.38;4.75;;;;;;;2.90;60.45;94007.69;5029560;28;20030;-77
2023/01/12 01:13:58;;;;;;;6.68;5.97;;;;;;;2.87;60.52;94008.22;5028808;28;20312;-77
2023/01/12 01:16:23;;;;;;;6.70;5.57;;;;;;;2.74;60.92;93988.53;5030004;28;20045;-77
2023/01/12 01:18:49;;;;;;;6.45;5.65;;;;;;;2.79;60.95;93993.00;5028020;28;20495;-77
2023/01/12 01:21:14;;;;;;;6.32;5.10;;;;;;;2.80;60.99;94002.44;5030420;28;20029;-77
2023/01/12 01:23:41;;;;;;;5.97;4.90;;;;;;;2.83;60.89;93996.69;5028747;28;20501;-76
2023/01/12 01:26:12;;;;;;;6.97;4.93;;;;;;;2.77;61.12;94002.97;5027191;28;20048;-77
2023/01/12 01:28:38;;;;;;;5.55;4.80;;;;;;;2.85;60.95;94005.06;5029354;28;20020;-77
2023/01/12 01:31:07;;;;;;;5.45;4.32;;;;;;;2.72;61.40;93997.69;5027267;28;20481;-77
2023/01/12 01:33:33;;;;;;;6.05;5.22;;;;;;;2.67;61.19;93987.16;5026495;28;20545;-76
2023/01/12 01:35:59;;;;;;;6.40;5.57;;;;;;;2.82;60.87;94005.59;5029138;28;20136;-77
2023/01/12 01:38:24;;;;;;;7.47;5.57;;;;;;;2.59;61.55;93990.31;5029633;28;20043;-76
2023/01/12 01:40:50;;;;;;;6.97;5.28;;;;;;;2.41;61.67;93973.19;5024224;28;20041;-76
2023/01/12 01:43:17;;;;;;;7.43;5.45;;;;;;;2.63;61.79;94007.13;5029971;28;20065;-77
2023/01/12 01:45:45;;;;;;;7.03;5.35;;;;;;;2.59;62.15;94014.75;5030239;28;20396;-77
2023/01/12 01:48:15;;;;;;;6.95;5.68;;;;;;;2.76;61.44;94011.88;5028239;28;20086;-76
2023/01/12 01:50:47;;;;;;;6.45;4.95;;;;;;;2.67;61.38;94014.22;5027456;28;20330;-77
2023/01/12 01:53:18;;;;;;;6.97;5.53;;;;;;;2.58;62.09;94015.00;5032608;28;20409;-77
2023/01/12 01:55:49;;;;;;;6.00;4.80;;;;;;;2.37;61.49;93970.28;5026044;28;20444;-77
2023/01/12 01:58:23;;;;;;;6.45;4.88;;;;;;;2.64;61.34;94000.84;5031188;28;20485;-77
2023/01/12 02:00:48;;;;;;;5.90;5.13;;;;;;;2.70;61.43;94020.78;5035919;28;20040;-77
2023/01/12 02:03:16;;;;;;;6.18;4.85;;;;;;;2.69;61.36;93998.22;5029658;28;20041;-77
2023/01/12 02:05:45;;;;;;;6.38;4.95;;;;;;;2.74;61.16;94008.75;5027986;28;20040;-76
2023/01/12 02:08:21;;;;;;;5.82;4.93;;;;;;;2.77;60.81;93990.63;5027359;28;20068;-77
2023/01/12 02:10:48;;;;;;;5.82;5.10;;;;;;;2.85;60.65;94002.44;5030370;28;20152;-77
2023/01/12 02:16:20;;;;;;;6.15;4.68;;;;;;;2.98;60.67;94012.47;5027945;28;22498;-77
2023/01/12 02:18:45;;;;;;;5.57;4.82;;;;;;;3.06;60.60;94011.16;5029180;28;20214;-77
2023/01/12 02:21:33;;;;;;;6.20;4.35;;;;;;;2.89;60.53;93998.28;5026540;28;20043;-76
2023/01/12 02:24:22;;;;;;;7.63;4.65;;;;;;;3.04;60.15;94000.88;5031720;28;20572;-77
2023/01/12 02:27:10;;;;;;;5.43;4.68;;;;;;;3.14;60.13;94019.28;5028795;28;20037;-77
2023/01/12 02:29:54;;;;;;;5.70;4.90;;;;;;;3.20;59.61;94022.72;5026721;28;20161;-77
2023/01/12 02:33:12;;;;;;;7.20;6.28;;;;;;;3.25;59.50;94020.09;5027782;28;20603;-78
2023/01/12 02:35:55;;;;;;;7.40;5.47;;;;;;;3.02;59.98;94008.25;5013967;28;20461;-77
2023/01/12 02:38:46;;;;;;;8.45;6.45;;;;;;;2.86;60.35;93990.88;5025495;28;20044;-76
2023/01/12 02:44:37;;;;;;;7.57;5.95;;;;;;;2.65;60.03;93965.63;5029814;28;20545;-77
2023/01/12 02:47:08;;;;;;;9.60;6.75;;;;;;;2.69;60.67;93982.47;5024554;28;20485;-78
2023/01/12 02:49:40;;;;;;;9.73;6.93;;;;;;;2.68;61.14;93996.63;5028422;28;20401;-77
2023/01/12 02:52:11;;;;;;;10.02;7.25;;;;;;;2.53;61.65;93992.13;5026569;28;20515;-77
2023/01/12 02:54:40;;;;;;;10.30;7.88;;;;;;;2.78;61.91;94010.59;5026199;28;20501;-77
2023/01/12 02:57:09;;;;;;;10.02;7.72;;;;;;;2.75;61.74;94005.84;5025729;28;20053;-77
2023/01/12 02:59:37;;;;;;;10.55;7.65;;;;;;;2.73;61.90;94015.03;5027564;28;20038;-77
2023/01/12 03:02:08;;;;;;;10.23;7.10;;;;;;;2.89;61.80;94014.03;5041422;28;20303;-77
2023/01/12 03:04:34;;;;;;;7.93;6.88;;;;;;;3.00;60.70;94006.94;5027092;28;20478;-77
2023/01/12 03:06:59;;;;;;;10.15;6.78;;;;;;;2.76;61.42;94009.25;5027098;28;20104;-77
2023/01/12 03:09:46;;;;;;;10.38;7.20;;;;;;;2.76;61.77;94007.41;5028893;28;20052;-77
2023/01/12 03:12:21;;;;;;;9.55;7.03;;;;;;;2.26;62.25;93946.88;5026022;28;20029;-76
2023/01/12 03:14:50;;;;;;;10.25;7.57;;;;;;;2.73;61.71;93999.28;5034282;28;20479;-77
2023/01/12 03:17:30;;;;;;;8.10;6.00;;;;;;;2.63;61.75;93997.41;5026010;28;20545;-77
2023/01/12 03:20:02;;;;;;;8.32;5.95;;;;;;;2.82;61.37;94005.59;5034104;28;20442;-77
2023/01/12 03:22:29;;;;;;;8.68;6.35;;;;;;;2.59;61.72;93979.81;5030700;28;20095;-77
2023/01/12 03:25:01;;;;;;;6.88;5.30;;;;;;;2.43;62.17;93992.91;5024621;28;20376;-78
2023/01/12 03:27:33;;;;;;;7.70;5.45;;;;;;;2.41;62.73;93997.59;5027042;28;20037;-76
2023/01/12 03:30:01;;;;;;;7.13;5.70;;;;;;;2.34;63.09;93993.66;5025639;28;20374;-76
2023/01/12 03:32:26;;;;;;;6.85;5.40;;;;;;;2.23;63.55;93984.94;5026035;28;20040;-77
2023/01/12 03:34:53;;;;;;;8.65;5.65;;;;;;;2.32;63.43;93985.22;5027281;28;20045;-77
2023/01/12 03:37:26;;;;;;;7.32;5.85;;;;;;;2.31;63.51;93997.56;5026527;28;20025;-76
2023/01/12 03:40:03;;;;;;;9.07;6.07;;;;;;;2.30;64.32;93987.34;5027867;28;20044;-76
2023/01/12 03:42:46;;;;;;;7.57;5.45;;;;;;;2.25;64.11;94000.44;5024682;28;20056;-76
2023/01/12 03:45:46;;;;;;;7.00;5.65;;;;;;;2.41;63.75;93999.44;5022484;28;20042;-76
2023/01/12 03:48:16;;;;;;;8.13;5.82;;;;;;;2.35;63.84;93997.84;5025962;28;20051;-77
2023/01/12 03:50:50;;;;;;;9.68;5.72;;;;;;;2.50;63.36;93987.38;5027260;28;20747;-77
2023/01/12 03:53:20;;;;;;;7.60;5.43;;;;;;;2.51;63.13;93984.50;5025645;28;20497;-77
2023/01/12 03:55:49;;;;;;;6.88;5.32;;;;;;;2.73;62.33;93994.03;5034406;28;20106;-77
2023/01/12 03:58:16;;;;;;;6.47;5.00;;;;;;;2.42;62.59;93975.56;5026336;28;20034;-77
2023/01/12 04:00:41;;;;;;;5.45;4.28;;;;;;;2.49;62.57;93981.38;5023959;28;20044;-76
2023/01/12 04:03:13;;;;;;;8.75;5.95;;;;;;;2.44;63.08;93983.19;5025388;28;20045;-77
2023/01/12 04:05:40;;;;;;;13.73;9.55;;;;;;;2.33;63.55;93982.34;5025125;28;20094;-77
2023/01/12 04:08:06;;;;;;;8.70;6.28;;;;;;;2.37;63.36;93983.41;5023694;28;20037;-76
2023/01/12 04:10:32;;;;;;;11.93;10.25;;;;;;;2.32;63.04;93967.66;5026182;28;20021;-76
2023/01/12 04:12:57;;;;;;;21.50;17.42;;;;;;;2.44;63.05;93981.34;5026537;28;20575;-76
2023/01/12 04:15:23;;;;;;;15.07;12.20;;;;;;;2.39;62.83;93972.66;5025540;28;20490;-77
2023/01/12 04:17:48;;;;;;;7.28;6.18;;;;;;;2.43;63.16;93982.38;5025653;28;20171;-76
2023/01/12 04:20:14;;;;;;;5.95;5.18;;;;;;;2.25;63.59;93968.94;5027553;28;20095;-77
2023/01/12 04:22:42;;;;;;;7.53;5.40;;;;;;;2.46;63.22;93987.13;5025712;28;20052;-77
2023/01/12 04:25:10;;;;;;;9.02;6.07;;;;;;;2.52;63.22;93982.69;5023437;28;20060;-78
2023/01/12 04:27:35;;;;;;;8.40;5.85;;;;;;;2.55;62.64;93968.25;5024610;28;20030;-77
2023/01/12 04:30:01;;;;;;;6.75;5.13;;;;;;;2.58;62.29;93968.53;5023955;28;20067;-77
2023/01/12 04:32:27;;;;;;;9.13;5.97;;;;;;;2.63;62.24;93991.38;5024079;28;20047;-78
2023/01/12 04:34:52;;;;;;;7.85;5.78;;;;;;;2.47;62.90;93987.91;5025204;28;20057;-77
2023/01/12 04:37:17;;;;;;;9.30;6.10;;;;;;;2.47;63.02;93980.81;5025777;28;20544;-77
2023/01/12 04:39:43;;;;;;;8.35;6.38;;;;;;;2.60;62.70;93991.91;5024819;28;20358;-77
2023/01/12 04:44:52;;;;;;;6.43;4.78;;;;;;;2.57;62.71;94000.28;5024550;28;20574;-77
2023/01/12 04:47:18;;;;;;;5.53;4.57;;;;;;;2.49;63.09;93997.13;5024314;28;20029;-77
2023/01/12 04:49:43;;;;;;;6.25;4.57;;;;;;;2.45;63.22;93995.28;5025159;28;20519;-78
2023/01/12 04:52:08;;;;;;;6.05;5.05;;;;;;;2.44;63.25;93991.84;5026199;28;20041;-77
2023/01/12 04:54:34;;;;;;;5.95;4.80;;;;;;;2.35;63.38;94001.25;5025203;28;20033;-77
2023/01/12 04:56:59;;;;;;;4.90;4.40;;;;;;;2.30;64.03;94009.13;5032116;28;20065;-76
2023/01/12 04:59:25;;;;;;;7.05;5.57;;;;;;;2.34;63.83;94006.78;5024448;28;20512;-77
2023/01/12 05:01:50;;;;;;;7.43;5.07;;;;;;;2.11;65.46;94015.84;5027852;28;20034;-77
2023/01/12 05:04:15;;;;;;;7.28;5.28;;;;;;;2.15;64.87;94003.81;5028612;28;20028;-76
2023/01/12 05:06:41;;;;;;;6.22;4.50;;;;;;;2.19;65.12;94017.19;5029139;28;20542;-77
2023/01/12 05:11:51;;;;;;;7.20;4.88;;;;;;;2.28;65.19;94026.94;5029697;28;20068;-76
2023/01/12 05:14:17;;;;;;;5.30;4.53;;;;;;;2.04;65.68;94012.66;5028144;28;20056;-77
2023/01/12 05:16:42;;;;;;;5.35;4.05;;;;;;;2.26;65.46;94023.00;5029969;28;20036;-77
2023/01/12 05:19:07;;;;;;;7.40;5.07;;;;;;;2.24;65.01;94025.88;5028708;28;20465;-77
2023/01/12 05:21:33;;;;;;;4.90;4.32;;;;;;;2.18;65.23;94020.88;5030499;28;20439;-77
2023/01/12 05:23:58;;;;;;;5.47;3.95;;;;;;;2.39;64.35;94028.59;5029154;28;20894;-77
2023/01/12 05:26:24;;;;;;;5.05;3.92;;;;;;;2.26;65.26;94039.53;5030670;28;20076;-78
2023/01/12 05:28:50;;;;;;;5.82;4.20;;;;;;;2.27;64.59;94020.13;5027709;28;20569;-76
2023/01/12 05:31:16;;;;;;;5.28;4.32;;;;;;;2.37;64.61;94035.13;5036266;28;20028;-77
2023/01/12 05:33:41;;;;;;;5.53;4.05;;;;;;;2.34;65.13;94036.44;5033897;28;20265;-77
2023/01/12 05:36:10;;;;;;;4.63;4.18;;;;;;;2.41;64.42;94044.84;5028396;28;20037;-77
2023/01/12 05:38:35;;;;;;;6.10;3.88;;;;;;;2.30;64.94;94038.00;5028003;28;20107;-76
2023/01/12 05:41:03;;;;;;;6.53;4.97;;;;;;;2.38;65.01;94053.25;5029223;28;20028;-77
2023/01/12 05:46:14;;;;;;;5.35;4.32;;;;;;;2.27;64.50;94041.13;5030316;28;20055;-77
2023/01/12 05:48:39;;;;;;;6.22;4.57;;;;;;;2.04;65.27;94025.78;5026361;28;20037;-77
2023/01/12 05:51:07;;;;;;;6.95;4.40;;;;;;;2.22;65.79;94069.97;5027178;28;20040;-78
2023/01/12 05:53:33;;;;;;;5.97;4.07;;;;;;;2.16;65.85;94064.94;5028442;28;20029;-78
2023/01/12 05:56:05;;;;;;;7.95;4.03;;;;;;;2.14;64.96;94032.91;5029407;28;20401;-77
2023/01/12 05:58:30;;;;;;;3.90;3.38;;;;;;;2.27;64.68;94050.81;5029096;28;20021;-76
2023/01/12 06:00:55;;;;;;;5.25;4.00;;;;;;;2.21;65.00;94060.50;5025740;28;20059;-77
2023/01/12 06:03:21;;;;;;;5.00;3.72;;;;;;;2.05;65.42;94043.91;5029361;28;20579;-77
2023/01/12 06:05:54;;;;;;;4.72;3.42;;;;;;;2.09;65.38;94052.06;5026341;28;20128;-77
2023/01/12 06:08:20;;;;;;;5.22;3.83;;;;;;;2.21;65.15;94070.19;5027532;28;20608;-77
2023/01/12 06:10:46;;;;;;;5.07;3.80;;;;;;;2.02;66.17;94072.47;5034780;28;20066;-77
2023/01/12 06:16:04;;;;;;;4.70;4.00;;;;;;;1.64;67.78;94052.50;5028430;28;20593;-77
2023/01/12 06:18:36;;;;;;;5.57;4.47;;;;;;;1.97;66.96;94072.44;5027868;28;20083;-76
2023/01/12 06:21:03;;;;;;;6.65;5.28;;;;;;;1.80;66.98;94054.22;5025978;28;20124;-76
2023/01/12 06:23:29;;;;;;;7.93;5.22;;;;;;;2.08;66.68;94064.38;5027646;28;20160;-77
2023/01/12 06:25:54;;;;;;;6.90;5.13;;;;;;;1.90;66.63;94045.66;5022284;28;20079;-78
2023/01/12 06:28:20;;;;;;;6.35;5.30;;;;;;;1.94;67.03;94054.59;5028995;28;20030;-76
2023/01/12 06:30:54;;;;;;;9.68;5.82;;;;;;;1.91;66.79;94039.38;5029122;28;20057;-77
2023/01/12 06:33:20;;;;;;;7.03;4.97;;;;;;;1.82;67.58;94048.69;5032559;28;20467;-77
2023/01/12 06:35:48;;;;;;;9.88;6.40;;;;;;;1.95;67.46;94069.28;5027807;28;20114;-77
2023/01/12 06:38:15;;;;;;;11.65;7.68;;;;;;;2.00;67.34;94071.94;5028503;28;20106;-76
2023/01/12 06:40:40;;;;;;;6.43;5.70;;;;;;;1.85;67.90;94053.44;5026512;28;20021;-76
2023/01/12 06:43:06;;;;;;;8.68;7.57;;;;;;;1.84;67.65;94050.03;5028028;28;20075;-74
2023/01/12 06:45:31;;;;;;;8.23;5.88;;;;;;;1.79;68.04;94060.50;5027731;28;20032;-77
2023/01/12 06:47:58;;;;;;;8.30;6.28;;;;;;;1.93;68.33;94073.97;5026928;28;20345;-77
2023/01/12 06:50:23;;;;;;;7.50;5.20;;;;;;;1.74;68.42;94052.59;5023133;28;20036;-77
2023/01/12 06:52:49;;;;;;;8.40;6.20;;;;;;;2.02;67.81;94082.94;5026944;28;20471;-77
2023/01/12 06:55:14;;;;;;;8.77;6.60;;;;;;;2.04;67.22;94068.56;5028552;28;20082;-77
2023/01/12 06:57:40;;;;;;;7.65;6.03;;;;;;;1.99;67.03;94062.47;5026282;28;20025;-77
2023/01/12 07:00:06;;;;;;;11.93;6.32;;;;;;;2.12;66.94;94069.09;5025568;28;20488;-78
2023/01/12 07:02:32;;;;;;;9.68;6.25;;;;;;;2.16;67.29;94080.69;5022993;28;20034;-77
2023/01/12 07:04:57;;;;;;;7.25;5.38;;;;;;;2.29;66.90;94088.91;5026769;28;20048;-75
2023/01/12 07:07:23;;;;;;;7.60;5.93;;;;;;;2.02;67.43;94082.94;5029344;28;20036;-75
2023/01/12 07:09:48;;;;;;;6.65;5.30;;;;;;;2.17;67.13;94093.53;5027439;28;20454;-77
2023/01/12 07:12:13;;;;;;;8.55;5.45;;;;;;;1.92;67.41;94075.81;5020144;28;20095;-76
2023/01/12 07:14:39;;;;;;;8.38;6.07;;;;;;;1.97;68.30;94107.31;5021897;28;20052;-76
2023/01/12 07:17:04;;;;;;;13.32;8.65;;;;;;;2.04;67.78;94094.78;5028638;28;20520;-76
2023/01/12 07:19:30;;;;;;;5.88;4.70;;;;;;;2.14;67.37;94099.31;5024929;28;20021;-77
2023/01/12 07:21:55;;;;;;;24.98;13.95;;;;;;;2.24;67.06;94099.38;5026555;28;20025;-76
2023/01/12 07:24:20;;;;;;;42.47;25.15;;;;;;;2.16;67.58;94097.22;5021809;28;20568;-76
2023/01/12 07:26:49;;;;;;;9.13;6.85;;;;;;;2.01;66.98;94076.91;5024336;28;20083;-76
2023/01/12 07:29:15;;;;;;;6.57;5.25;;;;;;;1.90;67.56;94069.25;5025349;28;20095;-76
2023/01/12 07:31:40;;;;;;;6.60;5.97;;;;;;;1.89;68.04;94101.75;5025751;28;20366;-76
2023/01/12 07:34:06;;;;;;;6.50;5.07;;;;;;;2.01;67.52;94070.91;5033758;28;20424;-76
2023/01/12 07:36:32;;;;;;;6.32;5.40;;;;;;;2.03;67.67;94077.47;5026737;28;20426;-77
2023/01/12 07:38:57;;;;;;;6.05;4.93;;;;;;;2.26;67.21;94091.22;5024562;28;20440;-76
2023/01/12 07:44:06;;;;;;;7.70;5.47;;;;;;;2.19;67.23;94095.94;5023407;28;20139;-76
2023/01/12 07:46:32;;;;;;;12.20;8.18;;;;;;;2.07;67.34;94062.00;5024717;28;20120;-77
2023/01/12 07:48:57;;;;;;;16.23;9.32;;;;;;;2.25;67.58;94077.34;5023595;28;20029;-77
2023/01/12 07:51:22;;;;;;;34.15;18.63;;;;;;;2.53;66.54;94081.41;5021920;28;20037;-77
2023/01/12 07:53:48;;;;;;;15.15;10.07;;;;;;;2.70;65.90;94091.69;5020509;28;20025;-76
2023/01/12 07:56:15;;;;;;;13.63;9.55;;;;;;;2.63;66.08;94091.94;5020076;28;21062;-76
2023/01/12 07:58:45;;;;;;;16.60;12.95;;;;;;;2.58;66.51;94089.31;5023296;28;20101;-77
2023/01/12 08:01:10;;;;;;;14.15;9.82;;;;;;;2.70;65.78;94074.09;5031290;28;20405;-76
2023/01/12 08:03:37;;;;;;;37.65;20.90;;;;;;;2.75;65.44;94073.34;5022722;28;20065;-75
2023/01/12 08:06:03;;;;;;;18.45;11.43;;;;;;;2.74;65.89;94082.28;5019301;28;20048;-76
2023/01/12 08:08:28;;;;;;;23.48;14.27;;;;;;;3.03;65.32;94096.56;5006479;28;20057;-76
2023/01/12 08:10:53;;;;;;;33.20;19.77;;;;;;;2.95;64.47;94079.44;5013425;28;20045;-76
2023/01/12 08:13:21;;;;;;;23.05;14.48;;;;;;;2.87;64.42;94084.41;5014548;28;20028;-76
2023/01/12 08:15:50;;;;;;;32.67;19.73;;;;;;;2.80;65.55;94097.00;5014865;28;20045;-76
2023/01/12 08:18:33;;;;;;;29.17;17.73;;;;;;;2.92;65.43;94092.31;5016579;28;20037;-77
2023/01/12 08:21:03;;;;;;;14.80;10.75;;;;;;;3.13;64.71;94088.69;5011372;28;20159;-74
2023/01/12 08:23:33;;;;;;;11.07;8.52;;;;;;;2.93;64.10;94080.75;5011523;28;20049;-76
2023/01/12 08:26:03;;;;;;;23.65;14.52;;;;;;;2.80;64.88;94081.22;5012857;28;20037;-76
2023/01/12 08:28:39;;;;;;;27.88;16.38;;;;;;;3.03;64.63;94096.56;5026583;28;20052;-76
2023/01/12 08:31:08;;;;;;;51.00;28.27;;;;;;;3.02;64.22;94094.97;5014757;28;20052;-76
2023/01/12 08:33:34;;;;;;;17.10;12.07;;;;;;;2.98;64.16;94057.13;5018867;28;20550;-76
2023/01/12 08:36:03;;;;;;;19.35;11.50;;;;;;;3.04;64.55;94065.81;5022429;28;20046;-76
2023/01/12 08:38:29;;;;;;;14.13;11.00;;;;;;;3.18;63.84;94086.09;5023127;28;20041;-76
2023/01/12 08:46:22;;;;;;;13.95;8.57;;;;;;;2.85;65.44;94073.38;5024438;28;20036;-77
2023/01/12 08:48:47;;;;;;;13.18;9.88;;;;;;;3.01;64.98;94077.63;5021852;28;20026;-76
2023/01/12 08:51:12;;;;;;;11.45;7.82;;;;;;;2.94;64.38;94053.41;5024667;28;20196;-77
2023/01/12 08:53:41;;;;;;;8.23;6.10;;;;;;;3.02;64.75;94089.72;5017549;28;20171;-76
2023/01/12 08:56:18;;;;;;;8.88;6.85;;;;;;;3.01;64.57;94075.00;4989314;28;20044;-76
2023/01/12 09:01:42;;;;;;;15.65;10.95;;;;;;;2.13;65.17;93950.00;4300971;23;20424;-84
2023/01/12 09:04:07;;;;;;;10.10;7.57;;;;;;;2.76;66.04;94080.97;4988584;28;20034;-84
2023/01/12 09:06:41;;;;;;;20.17;7.47;;;;;;;2.71;65.66;94065.19;4993007;28;20469;-84
2023/01/12 09:09:10;;;;;;;9.00;6.30;;;;;;;2.88;65.69;94080.75;4976306;28;20138;-84
2023/01/12 09:11:37;;;;;;;11.45;8.25;;;;;;;2.27;65.75;93959.75;4992515;28;20129;-85
2023/01/12 09:14:02;;;;;;;8.82;6.05;;;;;;;2.18;65.36;93931.66;4995114;28;20043;-84
2023/01/12 09:16:30;;;;;;;11.55;6.10;;;;;;;3.08;65.46;94091.31;4989566;28;20271;-84
2023/01/12 09:18:56;;;;;;;14.75;6.80;;;;;;;3.14;65.54;94092.88;4987196;28;20025;-85
2023/01/12 09:21:24;;;;;;;8.60;5.70;;;;;;;3.08;64.73;94099.19;4987990;28;20097;-84
2023/01/12 09:23:50;;;;;;;9.40;6.20;;;;;;;2.66;67.10;94091.44;4978353;28;20065;-84
2023/01/12 09:26:18;;;;;;;12.98;8.63;;;;;;;2.73;66.46;94093.81;4990158;28;20357;-84
2023/01/12 09:28:44;;;;;;;9.93;7.25;;;;;;;2.56;66.08;94054.63;4991303;28;20491;-86
2023/01/12 09:31:17;;;;;;;9.43;5.88;;;;;;;2.69;65.95;94069.13;4984361;28;20282;-84
2023/01/12 09:33:42;;;;;;;51.58;32.28;;;;;;;2.80;66.12;94060.22;4991229;28;20033;-84
2023/01/12 09:36:30;;;;;;;11.80;6.65;;;;;;;2.99;65.90;94090.22;4991424;28;20037;-84
2023/01/12 09:38:57;;;;;;;21.63;18.17;;;;;;;2.80;65.94;94074.13;4973178;28;20119;-84
2023/01/12 09:47:48;;;;;;;9.90;5.30;;;;;;;2.36;67.24;94097.31;4991908;28;20080;-83
2023/01/12 09:50:19;;;;;;;59.78;32.30;;;;;;;2.35;68.47;94087.84;4991431;28;20070;-84
2023/01/12 09:52:55;;;;;;;67.85;47.58;;;;;;;2.51;67.58;94079.03;4991271;28;20482;-83
2023/01/12 09:55:23;;;;;;;13.60;10.80;;;;;;;2.51;67.14;94081.66;4990763;28;20057;-84
2023/01/12 09:58:14;;;;;;;;;;;;;;;;;;;;;
2023/01/12 10:00:42;;;;;;;12.82;9.65;;;;;;;2.49;65.73;94033.88;4970860;28;20459;-85
2023/01/12 10:03:26;;;;;;;16.55;9.77;;;;;;;2.81;65.01;94072.31;4979178;28;20057;-85
2023/01/12 10:06:01;;;;;;;50.63;29.05;;;;;;;1.40;64.31;93852.91;4988934;28;20542;-85
2023/01/12 10:08:48;;;;;;;58.10;29.50;;;;;;;2.73;64.14;94086.75;4977163;28;20069;-84
2023/01/12 10:11:34;;;;;;;22.08;13.70;;;;;;;2.45;65.25;94066.91;4972207;28;20038;-84
2023/01/12 10:14:21;;;;;;;8.10;5.55;;;;;;;2.43;65.37;94084.78;4990274;28;20030;-84
2023/01/12 10:17:17;;;;;;;6.75;5.40;;;;;;;2.26;65.52;94034.28;4970014;28;20251;-84
2023/01/12 10:20:14;;;;;;;24.35;20.13;;;;;;;2.55;65.87;94089.03;4994178;28;20022;-84
2023/01/12 10:22:44;;;;;;;22.35;14.73;;;;;;;2.49;65.35;94073.25;4974421;28;20049;-84
2023/01/12 10:25:34;;;;;;;54.40;32.50;;;;;;;2.31;65.20;94020.38;4977366;28;20503;-84
2023/01/12 10:28:07;;;;;;;15.23;12.50;;;;;;;2.57;65.62;94058.03;4990881;28;20505;-84
2023/01/12 10:30:35;;;;;;;8.70;5.60;;;;;;;2.52;65.06;94085.84;4990237;28;20432;-84
2023/01/12 10:33:15;;;;;;;6.70;5.25;;;;;;;2.65;65.49;94075.91;4989775;28;20264;-84
2023/01/12 10:36:01;;;;;;;7.07;4.95;;;;;;;1.31;65.20;93859.66;4960307;28;20098;-84
2023/01/12 10:39:05;;;;;;;21.38;12.80;;;;;;;1.36;65.21;93878.03;4971573;28;20089;-83
2023/01/12 10:41:38;;;;;;;8.70;6.85;;;;;;;2.43;65.75;94058.53;4967572;28;20044;-83
2023/01/12 10:44:12;;;;;;;15.75;10.80;;;;;;;2.60;65.36;94076.69;4979153;28;20049;-85
2023/01/12 10:46:38;;;;;;;9.82;6.45;;;;;;;1.79;64.89;93939.84;4976311;28;20447;-85
2023/01/12 10:49:15;;;;;;;7.10;5.93;;;;;;;2.57;66.14;94071.16;4973568;28;20112;-85
2023/01/12 10:51:56;;;;;;;6.47;4.40;;;;;;;2.51;65.93;94063.28;4989512;28;20042;-85
2023/01/12 10:54:30;;;;;;;5.78;4.32;;;;;;;2.65;64.96;94068.84;4971847;28;20029;-85
2023/01/12 10:57:10;;;;;;;6.85;5.65;;;;;;;2.60;65.41;94060.16;4970203;28;20373;-84
2023/01/12 10:59:38;;;;;;;5.55;4.80;;;;;;;2.60;65.27;94062.78;4989966;28;20037;-84
2023/01/12 11:02:04;;;;;;;7.90;4.28;;;;;;;2.50;65.34;94045.94;4978443;28;20125;-85
2023/01/12 11:04:35;;;;;;;5.80;4.30;;;;;;;1.73;66.07;93943.50;4987581;28;20036;-85
2023/01/12 11:07:13;;;;;;;5.78;4.47;;;;;;;1.32;66.14;93869.13;4988662;28;20165;-85
2023/01/12 11:09:39;;;;;;;6.97;4.30;;;;;;;1.61;66.57;93916.69;4973476;28;20042;-84
2023/01/12 11:12:19;;;;;;;5.90;4.93;;;;;;;1.86;65.72;93944.88;4978421;28;20046;-84
2023/01/12 11:14:56;;;;;;;6.47;4.30;;;;;;;1.08;66.13;93828.63;4987705;28;20061;-84
2023/01/12 11:17:50;;;;;;;5.45;4.60;;;;;;;2.50;66.46;94047.75;4986130;28;20042;-85
2023/01/12 11:20:39;;;;;;;41.78;19.70;;;;;;;2.52;66.74;94043.84;4980474;28;20037;-84
2023/01/12 11:23:29;;;;;;;13.18;7.75;;;;;;;2.66;66.14;94049.41;4991993;28;20081;-84
2023/01/12 11:25:58;;;;;;;8.82;6.57;;;;;;;2.56;66.30;94027.56;4992705;28;20051;-85
2023/01/12 11:28:43;;;;;;;10.55;8.98;;;;;;;1.78;65.32;93875.34;4988679;28;20045;-85
2023/01/12 11:31:21;;;;;;;7.10;6.40;;;;;;;2.87;65.17;94039.75;4988550;28;20569;-84
2023/01/12 11:33:57;;;;;;;6.72;5.00;;;;;;;2.86;65.13;94040.81;4978479;28;20115;-84
2023/01/12 11:36:27;;;;;;;8.20;6.93;;;;;;;2.62;65.11;93984.53;4986680;28;20036;-85
2023/01/12 11:39:00;;;;;;;5.97;4.53;;;;;;;2.69;65.39;94012.16;4989583;28;20404;-84
2023/01/12 11:43:48;;;;;;;7.35;5.80;;;;;;;2.80;66.12;94034.75;4987052;28;20443;-84
2023/01/12 11:44:42;;;;;;;8.15;5.90;;;;;;;2.94;66.01;94032.41;4987717;28;20046;-85
2023/01/12 11:47:14;;;;;;;9.20;5.57;;;;;;;2.70;64.87;93965.63;4972493;28;20048;-85
2023/01/12 11:50:04;;;;;;;6.40;5.00;;;;;;;3.11;64.16;94035.59;4975870;28;20026;-84
2023/01/12 11:52:30;;;;;;;6.13;5.50;;;;;;;2.88;63.94;94005.34;4975635;28;20081;-84
2023/01/12 11:54:55;;;;;;;7.38;6.10;;;;;;;2.78;64.43;93989.56;4972153;28;20021;-84
2023/01/12 11:57:50;;;;;;;6.70;4.80;;;;;;;3.03;64.55;94027.44;4989047;28;20065;-84
2023/01/12 12:00:40;;;;;;;5.18;4.60;;;;;;;2.89;64.63;94016.66;4976499;28;20033;-83
2023/01/12 12:03:11;;;;;;;5.30;4.80;;;;;;;2.88;64.24;94020.31;4988443;28;20093;-84
2023/01/12 12:05:42;;;;;;;5.97;5.00;;;;;;;2.87;64.31;94019.53;4985881;28;20053;-83
2023/01/12 12:08:52;;;;;;;7.05;6.05;;;;;;;2.86;65.02;94019.78;4970342;28;20121;-84
2023/01/12 12:11:41;;;;;;;6.90;5.63;;;;;;;2.90;64.75;94005.06;4879650;29;20036;-83
2023/01/12 12:14:18;;;;;;;24.50;13.23;;;;;;;2.94;64.11;94012.19;4964268;28;21263;-83
2023/01/12 12:16:53;;;;;;;6.93;5.25;;;;;;;3.02;64.25;94021.41;4976433;28;20033;-83
2023/01/12 12:19:18;;;;;;;7.43;6.30;;;;;;;3.08;64.25;94025.63;4977148;28;20022;-83
2023/01/12 12:21:55;;;;;;;6.68;5.47;;;;;;;3.13;64.38;94017.75;4978202;28;20101;-84
2023/01/12 12:24:49;;;;;;;5.70;4.43;;;;;;;2.96;63.96;93996.16;4987898;28;22484;-83
2023/01/12 12:27:33;;;;;;;7.97;6.10;;;;;;;3.23;63.44;94022.97;4968416;28;20540;-84
2023/01/12 12:30:18;;;;;;;5.50;4.80;;;;;;;3.25;63.56;94018.25;4967154;28;20038;-84
2023/01/12 12:33:05;;;;;;;7.70;5.72;;;;;;;2.94;63.32;93945.69;4988015;28;20061;-83
2023/01/12 12:35:39;;;;;;;7.95;5.50;;;;;;;2.11;61.73;93784.94;4970683;28;20064;-84
2023/01/12 12:38:25;;;;;;;5.97;5.18;;;;;;;2.62;61.71;93884.75;4960996;28;20047;-85
2023/01/12 12:47:03;;;;;;;6.82;5.90;;;;;;;3.77;61.58;94017.97;4986895;28;20702;-84
2023/01/12 12:49:34;;;;;;;7.55;5.22;;;;;;;3.27;61.12;93939.94;4939818;28;20491;-84